Hauptseite
METAR-TAF:

METAR-TAF

Flughäfen :

Leipzig-Altenburg Airport

Altenburg, Deutschland

Breite: 50-58N, Länge: 012-30E, Höhe: 195 m

Beobachtung

Neuester Wetterbericht von vor 23 Minuten, um 17:20 UTC
Wind 7 kt aus Süd, variierte zwischen Süd/Südost und Südwest
Temperatur 14°C
Luftfeuchtigkeit 82%
Luftdruck 1019 hPa
Sichtweite 10 km oder mehr
Leicht bewölkt in der Höhe von 2900 ft
Durchbrochene Bewölkung in der Höhe von 3600 ft

METAR: EDAC 191720Z 19007KT 160V220 9999 FEW029 BKN036 14/11 Q1019

Zeit: 19:43 (17:43 UTC)

Prognose

Neuester Wetterbericht von vor 43 Minuten, um 17:00 UTC
Gültige Prognose vom 19 um 18 UTC bis 20 um 03 UTC
Wind 10 kt aus Süd/Südwest
Sichtweite 10 km oder mehr
Aufgelockert bewölkt in der Höhe von 3000 ft

TAF: EDAC 191700Z 1918/2003 20010KT 9999 SCT030

Wetterbeobachtungen und Prognosen von mehr als 4000 Flughäfen (METAR und TAF Bericht).

Die verfügbaren Stationen werden durch gelbe und rote Markierungen auf der Karte dargestellt.

Führen Sie die Maus auf sie, um den Namen der Station zu sehen.

Darauf klicken, um die Beobachtung von Wetterbeobachtungen und Prognosen zu sehen.

Um die Karte zu ändern : klicken Sie auf den grünen Tasten mit einem schwarzen Kreuz Zum Vergrößern, auf den grünen Button mit einem Gedankenstrich zu verkleinern, oder auf die grünen Pfeile für benachbarte Karten.


METAR-TAF: